Másolás Excelbe

Csehország - 4. liga Szögletstatisztika és eredmények

A TotalCorner Csehország - 4. liga szögletstatisztikát, sorsolást, eredményeket, tabellát, lapstatisztikát és szorzó-összehasonlítást kínál. Kövesd nyomon a legutóbbi Csehország - 4. liga mérkőzést a teljes idős szögletekkel, félidős szögletekkel, gólokkal, lapokkal és mérkőzésadatokkal.

kezdési idő Hazai Állás Vendég Hendikep Szöglet Félidő szöglet Ázsiai szgl. Szöglet F/A Gólok Gól F/A Támadás Lövések Elemzés
August 2026
08/30 16:00 Teljes SK Sparta Kolin 0 - 4 SK Kosmonosy 0.0 2 - 6 1 - 2 3.0, 3.5 Over 95 - 131 5 - 16
08/30 16:00 Teljes Dvur Kralove nad Labem 1 - 0 TJ Svitavy 0.0, -0.5 8 - 4 6 - 0 3.0, 3.5 Under 73 - 85 12 - 4
08/30 16:00 Teljes FC Taborsko B 1 - 1 SK Petrin Plzen -0.5 9 - 4 3 - 3 3.0 Under 107 - 72 8 - 9
08/30 15:00 Teljes Sokol Tasovice 4 - 1 TJ Sokol Bedrichov -1.0 12 - 2 6 - 0 3.0, 3.5 Over 109 - 105 16 - 4
08/30 15:00 Teljes FK Bospor Bohumin 4 - 1 Pusta Polom -1.5 10 - 6 4 - 2 3.5 Over 103 - 86 26 - 14
08/30 15:00 Teljes Hanacka Slavia Kromeriz B 0 - 1 FK Kozlovice +1.0, +1.5 4 - 4 1 - 4 3.0, 3.5 Under 71 - 66 11 - 7
08/30 15:00 Teljes SK Zdirec Nad Doubravou 2 - 2 FK Pelhrimov 0.0, -0.5 15 - 2 7 - 2 3.0 Over 101 - 84 18 - 8
08/30 15:00 Teljes SK Sulko Zabreh 0 - 1 TJ Novy Jicin -0.5, -1.0 7 - 1 4 - 1 3.0 Under 93 - 63 14 - 9
08/30 15:00 Teljes Tatran Vsechovice 2 - 0 SK Krumvir -0.5, -1.0 4 - 6 4 - 2 3.5 Under 98 - 96 9 - 10
08/30 09:15 Teljes FC Brumov 3 - 3 SFK Holesov 0.0 6 - 5 1 - 3 3.0 Over 84 - 81 13 - 8
08/29 16:00 Teljes SK Rapid Psary 2 - 1 SK Slany 0.0, -0.5 11 - 3 6 - 3 3.0 Push 71 - 71 19 - 7
08/29 16:00 Teljes Slovan Velvary 2 - 1 Karlovy Vary 0.0, -0.5 4 - 4 0 - 3 3.0, 3.5 Under 112 - 148 6 - 14
08/29 15:30 Teljes Havlickuv Brod 1 - 3 FC Kurim +0.5 9 - 8 4 - 4 2.5, 3.0 Over 92 - 110 10 - 15
08/29 15:00 SK Stonava 0 - 0 FC Vratimov 0.0 0 - 0 0 - 0 3.0 - -
08/29 15:00 Teljes Frydek Mistek B 1 - 2 Hlucin +1.0 6 - 5 4 - 3 3.5 Under 84 - 83 16 - 17
08/29 15:00 Teljes Frydlant Nad Ostravici 1 - 5 FK Sumperk 0.0 0 - 9 0 - 7 3.0 Over 96 - 105 3 - 17
08/29 15:00 Teljes Bzenec 3 - 4 Slavicin 0.0 6 - 7 4 - 2 3.0 Over 49 - 54 6 - 13
08/29 09:30 Teljes Hlinsko 2 - 1 Cechie Vykan 0.0, +0.5 1 - 5 1 - 1 3.0, 3.5 Under 104 - 137 10 - 16
08/29 09:30 Teljes FK Usti nad Labem B 0 - 4 Sokol Hostoun +1.0, +1.5 2 - 10 0 - 4 3.0, 3.5 Over 70 - 89 8 - 17
08/29 09:30 Teljes SK Prostejov B 3 - 3 Hluk -0.5 8 - 6 4 - 4 3.0, 3.5 Over 92 - 68 22 - 9
08/29 09:15 Teljes FK Brandys nad Labem 1 - 2 FC Tempo Prague 0.0 4 - 6 1 - 3 3.0, 3.5 Under 68 - 67 11 - 12
08/29 09:15 Teljes Chomutov 4 - 0 Meteor Praha VIII -0.5, -1.0 7 - 2 5 - 1 3.0 Over 89 - 76 16 - 11
08/29 09:15 Teljes Opava B 0 - 3 Kravare -0.5, -1.0 7 - 4 4 - 2 3.0, 3.5 Under 102 - 106 10 - 11
08/29 09:15 Teljes Bridlicna 3 - 1 SSK Bilovec 0.0, +0.5 8 - 5 2 - 3 3.0, 3.5 Over 92 - 104 15 - 12
08/29 09:15 Teljes Slavoj Vysehrad 1 - 2 Hvezda Cheb -1.0 8 - 3 3 - 1 3.0 Push 129 - 135 7 - 5
08/29 09:15 Teljes FC Krimice 1 - 2 FK Komarov -1.0, -1.5 6 - 5 2 - 1 3.0, 3.5 Under 109 - 79 13 - 15
08/29 09:15 Teljes SK Ujezd Praha 4 3 - 2 FK Ostrov -1.0, -1.5 6 - 4 2 - 2 3.0, 3.5 Over 66 - 57 12 - 8
08/28 16:30 Teljes FC Strani 9 - 0 FK Nove Sady -2.0 7 - 1 4 - 0 3.5, 4.0 Over 137 - 98 28 - 5
08/28 16:00 Teljes TJ Tatran Bohunice 3 - 3 Velke Mezirici -1.0, -1.5 14 - 2 3 - 0 3.0 Over 128 - 90 10 - 6
August 2026
08/23 16:00 Teljes Dvur Kralove nad Labem 2 - 2 SK Sparta Kolin 0.0, +0.5 4 - 1 1 - 0 3.0, 3.5 Over 83 - 78 9 - 11
08/23 16:00 Teljes SK Strakonice 5 - 2 FK Okula Nyrsko -0.5 5 - 2 3 - 0 3.0, 3.5 Over 83 - 75 16 - 11
08/23 15:30 Teljes FC Spartak Velka Bites 1 - 0 SK Zdirec Nad Doubravou -0.5, -1.0 0 - 11 0 - 7 3.0 Under 74 - 80 8 - 14
08/23 15:30 Teljes FK Kozlovice 1 - 0 Sternberk -1.5, -2.0 3 - 2 1 - 2 3.5 Under 104 - 83 10 - 13
08/23 15:30 Teljes SSK Bilovec 0 - 5 FK Bospor Bohumin 0.0, +0.5 2 - 6 1 - 1 3.0, 3.5 Over 72 - 76 11 - 22
08/23 15:30 Teljes TJ Sokol Lanzhot 1 - 3 FC Strani 0.0 5 - 9 2 - 8 3.0 Over 72 - 82 11 - 12
08/23 09:15 Teljes Slavicin 2 - 4 Tatran Vsechovice 0.0, +0.5 0 - 3 0 - 0 3.0 Over 72 - 79 10 - 13
08/23 09:15 Meteor Praha VIII 0 - 0 Banik Sokolov 0.0,-0.5 0 - 0 0 - 0 3.0 - -
08/23 09:15 Teljes FK Chlumec nad Cidlinou 0 - 2 SK Kosmonosy 0.0 6 - 2 1 - 0 3.0 Under 93 - 79 13 - 9
08/22 17:00 Teljes Karlovy Vary 4 - 1 SK Ujezd Praha 4 0.0 3 - 4 3 - 2 3.0 Over 80 - 83 7 - 11
08/22 16:00 Teljes FC Rokycany 0 - 2 FC Krimice 0.0, +0.5 4 - 5 2 - 2 3.0 Under 50 - 104 2 - 17

Maradj naprakész a TotalCorner segítségével

Csatlakozz ingyenes Telegram tippek csatornánkhoz. Egyéni meccsértesítéseket is beállíthatsz.

Ingyenes Telegram tippek Egyéni értesítések